createdAt,value
2023-05-14T00:00:44.456Z,115.36
2023-05-14T00:01:47.994Z,114.92
2023-05-14T00:02:51.436Z,111.03
2023-05-14T00:03:54.774Z,119.13
2023-05-14T00:04:58.068Z,107.11
2023-05-14T00:06:01.358Z,106.77
2023-05-14T00:07:04.812Z,102.61
2023-05-14T00:08:08.162Z,103.17
2023-05-14T00:09:11.450Z,105.37
2023-05-14T00:10:14.674Z,108.67
2023-05-14T00:11:18.083Z,101.89
2023-05-14T00:12:21.336Z,104.75
2023-05-14T00:13:24.596Z,99.99
2023-05-14T00:14:28.027Z,107.82
2023-05-14T00:15:32.951Z,102.48
2023-05-14T00:16:37.658Z,107.31
2023-05-14T00:17:41.284Z,109.25
2023-05-14T00:18:44.721Z,105.97
2023-05-14T00:19:48.056Z,102.98
2023-05-14T00:20:55.296Z,102.47
2023-05-14T00:21:58.555Z,102.92
2023-05-14T00:23:02.058Z,102.56
2023-05-14T00:24:06.218Z,101.53
2023-05-14T00:25:10.459Z,98.08
2023-05-14T00:26:14.367Z,99.49
2023-05-14T00:27:20.437Z,98.68
2023-05-14T00:28:23.709Z,98.46
2023-05-14T00:29:27.006Z,94.14
2023-05-14T00:30:30.439Z,96.67
2023-05-14T00:31:33.882Z,95.68
2023-05-14T00:32:37.222Z,101.07
2023-05-14T00:33:46.914Z,97.66
2023-05-14T00:35:03.219Z,96.46
2023-05-14T00:36:44.460Z,102.40
2023-05-14T00:38:00.202Z,102.61
2023-05-14T00:39:11.623Z,98.07
2023-05-14T00:40:19.688Z,96.33
2023-05-14T00:41:34.206Z,98.98
2023-05-14T00:42:57.793Z,96.22
2023-05-14T00:45:50.560Z,102.28
2023-05-14T00:47:43.247Z,99.47
2023-05-14T00:48:54.238Z,98.14
2023-05-14T00:50:41.295Z,96.87
2023-05-14T00:51:51.164Z,98.93
2023-05-14T00:52:54.615Z,97.34
2023-05-14T00:53:58.268Z,94.66
2023-05-14T00:55:06.225Z,97.03
2023-05-14T00:56:28.598Z,98.12
2023-05-14T00:57:46.442Z,99.70
2023-05-14T00:59:15.418Z,103.41
2023-05-14T01:00:20.829Z,104.17
2023-05-14T01:01:29.490Z,106.41
2023-05-14T01:02:46.644Z,96.23
2023-05-14T01:03:55.554Z,93.91
2023-05-14T01:05:00.350Z,90.05
2023-05-14T01:06:31.588Z,90.14
2023-05-14T01:08:25.653Z,94.10
2023-05-14T01:09:59.100Z,95.28
2023-05-14T01:12:06.397Z,92.20
2023-05-14T01:13:38.901Z,92.61
2023-05-14T01:15:19.952Z,93.34
2023-05-14T01:16:31.109Z,92.42
2023-05-14T01:17:58.227Z,94.48
2023-05-14T01:19:13.982Z,94.48
2023-05-14T01:20:50.166Z,96.53
2023-05-14T01:22:02.903Z,98.04
2023-05-14T01:23:07.434Z,94.46
2023-05-14T01:24:22.868Z,94.10
2023-05-14T01:25:35.526Z,101.43
2023-05-14T01:26:39.504Z,94.29
2023-05-14T01:28:06.226Z,95.19
2023-05-14T01:29:20.278Z,95.85
2023-05-14T01:30:35.190Z,96.15
2023-05-14T01:32:02.382Z,95.74
2023-05-14T01:33:44.612Z,97.56
2023-05-14T01:34:53.077Z,98.29
2023-05-14T01:35:57.343Z,97.10
2023-05-14T01:37:02.463Z,97.61
2023-05-14T01:38:10.393Z,100.33
2023-05-14T01:39:16.290Z,100.31
2023-05-14T01:40:20.409Z,98.29
2023-05-14T01:41:27.690Z,97.95
2023-05-14T01:42:31.703Z,98.11
2023-05-14T01:43:36.510Z,98.85
2023-05-14T01:44:40.144Z,92.07
2023-05-14T01:45:44.573Z,94.08
2023-05-14T01:46:47.901Z,93.82
2023-05-14T01:47:52.560Z,93.10
2023-05-14T01:48:55.876Z,96.47
2023-05-14T01:49:59.223Z,94.47
2023-05-14T01:51:03.328Z,97.20
2023-05-14T01:52:06.960Z,97.09
2023-05-14T01:53:10.458Z,91.59
2023-05-14T01:54:13.736Z,98.87
2023-05-14T01:55:17.041Z,92.29
2023-05-14T01:56:22.539Z,94.54
2023-05-14T01:57:26.341Z,95.75
2023-05-14T01:58:29.761Z,95.68
2023-05-14T01:59:33.020Z,97.84
2023-05-14T02:00:36.326Z,96.44
2023-05-14T02:01:39.904Z,91.68
2023-05-14T02:02:43.262Z,92.41
2023-05-14T02:03:48.370Z,96.71
2023-05-14T02:04:51.990Z,100.72
2023-05-14T02:05:55.227Z,99.82
2023-05-14T02:06:59.180Z,97.21
2023-05-14T02:08:02.485Z,93.82
2023-05-14T02:09:06.340Z,95.57
2023-05-14T02:10:10.404Z,95.12
2023-05-14T02:11:13.600Z,91.05
2023-05-14T02:12:16.941Z,96.42
2023-05-14T02:13:20.442Z,99.34
2023-05-14T02:14:23.625Z,93.13
2023-05-14T02:15:26.837Z,93.08
2023-05-14T02:16:30.146Z,97.39
2023-05-14T02:17:33.626Z,95.64
2023-05-14T02:18:36.931Z,100.17
2023-05-14T02:19:40.208Z,97.99
2023-05-14T02:20:43.413Z,96.60
2023-05-14T02:21:46.896Z,100.47
2023-05-14T02:22:50.169Z,99.06
2023-05-14T02:23:53.499Z,98.24
2023-05-14T02:24:56.844Z,94.04
2023-05-14T02:26:00.033Z,96.80
2023-05-14T02:27:03.469Z,96.42
2023-05-14T02:28:06.699Z,98.71
2023-05-14T02:29:10.209Z,97.34
2023-05-14T02:30:13.663Z,94.81
2023-05-14T02:31:19.744Z,97.83
2023-05-14T02:32:23.115Z,99.03
2023-05-14T02:33:26.600Z,104.01
2023-05-14T02:34:29.890Z,103.02
2023-05-14T02:35:33.165Z,102.66
2023-05-14T02:36:36.482Z,99.25
2023-05-14T02:37:39.890Z,102.27
2023-05-14T02:38:43.272Z,102.64
2023-05-14T02:39:46.668Z,103.94
2023-05-14T02:40:52.029Z,100.94
2023-05-14T02:41:55.507Z,103.79
2023-05-14T02:42:58.744Z,96.95
2023-05-14T02:44:02.203Z,101.68
2023-05-14T02:45:05.837Z,97.55
2023-05-14T02:46:09.097Z,97.65
2023-05-14T02:47:12.455Z,98.98
2023-05-14T02:48:15.858Z,104.39
2023-05-14T02:49:19.006Z,97.05
2023-05-14T02:50:22.624Z,101.86
2023-05-14T02:51:26.042Z,100.52
2023-05-14T02:52:29.494Z,101.98
2023-05-14T02:53:32.696Z,97.77
2023-05-14T02:54:36.012Z,96.69
2023-05-14T02:55:39.242Z,101.02
2023-05-14T02:56:42.419Z,99.26
2023-05-14T02:57:45.678Z,104.37
2023-05-14T02:58:48.964Z,101.71
2023-05-14T02:59:52.172Z,98.76
2023-05-14T03:00:56.138Z,96.77
2023-05-14T03:01:59.979Z,95.71
2023-05-14T03:03:03.577Z,93.77
2023-05-14T03:04:07.337Z,95.22
2023-05-14T03:05:10.574Z,98.88
2023-05-14T03:06:13.765Z,100.68
2023-05-14T03:07:17.682Z,99.09
2023-05-14T03:08:21.264Z,99.12
2023-05-14T03:09:24.564Z,98.28
2023-05-14T03:10:27.875Z,102.49
2023-05-14T03:11:31.264Z,98.83
2023-05-14T03:12:34.609Z,94.46
2023-05-14T03:13:37.817Z,94.47
2023-05-14T03:14:41.046Z,97.39
2023-05-14T03:15:45.241Z,96.05
2023-05-14T03:16:48.887Z,97.84
2023-05-14T03:17:52.252Z,103.46
2023-05-14T03:18:55.699Z,98.56
2023-05-14T03:19:58.976Z,94.53
2023-05-14T03:21:04.532Z,96.51
2023-05-14T03:22:08.066Z,96.00
2023-05-14T03:23:11.546Z,96.51
2023-05-14T03:24:14.735Z,93.99
2023-05-14T03:25:18.260Z,95.37
2023-05-14T03:26:22.900Z,92.59
2023-05-14T03:27:29.126Z,90.08
2023-05-14T03:28:32.318Z,93.32
2023-05-14T03:29:36.197Z,91.61
2023-05-14T03:30:39.529Z,91.10
2023-05-14T03:31:42.758Z,91.73
2023-05-14T03:32:46.923Z,87.75
2023-05-14T03:33:50.203Z,94.18
2023-05-14T03:34:53.553Z,90.79
2023-05-14T03:35:56.782Z,92.87
2023-05-14T03:37:00.202Z,94.80
2023-05-14T03:38:04.553Z,93.27
2023-05-14T03:39:10.744Z,91.50
2023-05-14T03:40:14.083Z,88.95
2023-05-14T03:41:20.709Z,91.95
2023-05-14T03:42:24.210Z,96.49
2023-05-14T03:43:27.447Z,97.02
2023-05-14T03:44:31.246Z,99.30
2023-05-14T03:45:34.680Z,91.31
2023-05-14T03:46:37.947Z,92.08
2023-05-14T03:47:41.751Z,95.80
2023-05-14T03:48:45.301Z,98.08
2023-05-14T03:49:49.089Z,94.65
2023-05-14T03:50:52.915Z,93.49
2023-05-14T03:51:56.571Z,96.76
2023-05-14T03:52:59.835Z,98.59
2023-05-14T03:54:05.186Z,98.27
2023-05-14T03:55:09.959Z,98.30
2023-05-14T03:56:13.341Z,96.95
2023-05-14T03:57:16.731Z,95.38
2023-05-14T03:58:19.867Z,97.83
2023-05-14T03:59:23.186Z,96.44
2023-05-14T04:00:26.592Z,96.93
2023-05-14T04:01:29.997Z,95.88
2023-05-14T04:02:34.493Z,96.87
2023-05-14T04:03:37.947Z,99.13
2023-05-14T04:04:41.817Z,94.62
2023-05-14T04:05:45.212Z,98.38
2023-05-14T04:06:48.585Z,98.95
2023-05-14T04:07:53.220Z,95.23
2023-05-14T04:08:56.832Z,95.27
2023-05-14T04:10:02.624Z,94.35
2023-05-14T04:11:07.500Z,98.25
2023-05-14T04:12:10.849Z,97.18
2023-05-14T04:13:14.039Z,97.03
2023-05-14T04:14:17.390Z,98.29
2023-05-14T04:15:21.494Z,96.19
2023-05-14T04:16:24.770Z,95.34
2023-05-14T04:17:28.296Z,96.37
2023-05-14T04:18:35.655Z,98.98
2023-05-14T04:19:39.985Z,97.47
2023-05-14T04:20:43.210Z,99.22
2023-05-14T04:21:46.465Z,96.83
2023-05-14T04:22:49.685Z,96.09
2023-05-14T04:23:52.926Z,97.53
2023-05-14T04:24:56.178Z,102.35
2023-05-14T04:25:59.923Z,101.31
2023-05-14T04:27:03.129Z,99.86
2023-05-14T04:28:06.681Z,107.77
2023-05-14T04:29:09.888Z,105.95
2023-05-14T04:30:13.542Z,108.44
2023-05-14T04:31:17.060Z,104.74
2023-05-14T04:32:21.155Z,104.75
2023-05-14T04:33:24.379Z,108.61
2023-05-14T04:34:27.673Z,106.59
2023-05-14T04:35:31.037Z,105.81
2023-05-14T04:36:34.249Z,105.88
2023-05-14T04:37:37.648Z,104.53
2023-05-14T04:38:40.858Z,106.36
2023-05-14T04:39:44.325Z,113.58
2023-05-14T04:40:47.521Z,105.68
2023-05-14T04:41:50.759Z,109.20
2023-05-14T04:42:53.950Z,108.05
2023-05-14T04:43:59.929Z,115.61
2023-05-14T04:45:03.361Z,113.40
2023-05-14T04:46:07.029Z,108.82
2023-05-14T04:47:10.299Z,111.64
2023-05-14T04:48:13.586Z,103.56
2023-05-14T04:49:16.829Z,106.47
2023-05-14T04:50:20.069Z,111.98
2023-05-14T04:51:23.846Z,109.04
2023-05-14T04:52:27.393Z,111.64
2023-05-14T04:53:31.255Z,114.84
2023-05-14T04:54:34.712Z,110.16
2023-05-14T04:55:38.409Z,109.44
2023-05-14T04:56:41.831Z,115.51
2023-05-14T04:57:45.075Z,114.49
2023-05-14T04:58:48.500Z,117.24
2023-05-14T04:59:51.878Z,116.75
2023-05-14T05:00:55.149Z,112.45
2023-05-14T05:01:58.677Z,114.28
2023-05-14T05:03:02.100Z,119.90
2023-05-14T05:04:05.603Z,113.29
2023-05-14T05:05:10.211Z,113.64
2023-05-14T05:06:13.440Z,118.91
2023-05-14T05:07:16.742Z,119.29
2023-05-14T05:08:20.022Z,118.33
2023-05-14T05:09:23.223Z,115.64
2023-05-14T05:10:26.756Z,122.28
2023-05-14T05:11:30.097Z,120.72
2023-05-14T05:12:33.296Z,114.54
2023-05-14T05:13:36.678Z,116.60
2023-05-14T05:14:39.905Z,115.82
2023-05-14T05:15:43.092Z,122.26
2023-05-14T05:16:46.536Z,117.65
2023-05-14T05:17:49.988Z,121.02
2023-05-14T05:18:53.462Z,120.92
2023-05-14T05:19:56.681Z,115.81
2023-05-14T05:20:59.966Z,114.62
2023-05-14T05:22:03.325Z,117.39
2023-05-14T05:23:06.683Z,119.24
2023-05-14T05:24:10.043Z,118.70
2023-05-14T05:25:13.662Z,114.10
2023-05-14T05:26:17.438Z,115.42
2023-05-14T05:27:22.720Z,119.19
2023-05-14T05:28:25.914Z,121.95
2023-05-14T05:29:29.146Z,117.00
2023-05-14T05:30:32.560Z,121.06
2023-05-14T05:31:36.208Z,120.54
2023-05-14T05:32:39.804Z,124.90
2023-05-14T05:33:43.211Z,122.67
2023-05-14T05:34:46.553Z,123.08
2023-05-14T05:35:50.856Z,127.59
2023-05-14T05:36:54.099Z,118.17
2023-05-14T05:38:00.477Z,124.10
2023-05-14T05:39:04.704Z,132.41
2023-05-14T05:40:09.876Z,132.87
2023-05-14T05:41:13.300Z,121.49
2023-05-14T05:42:16.566Z,118.09
2023-05-14T05:43:19.847Z,123.14
2023-05-14T05:44:23.099Z,117.42
2023-05-14T05:45:26.309Z,112.10
2023-05-14T05:46:29.977Z,121.72
2023-05-14T05:47:33.506Z,112.12
2023-05-14T05:48:36.707Z,118.03
2023-05-14T05:49:39.954Z,111.79
2023-05-14T05:50:45.465Z,109.69
2023-05-14T05:51:48.657Z,113.62
2023-05-14T05:52:52.764Z,111.68
2023-05-14T05:53:56.070Z,110.36
2023-05-14T05:54:59.319Z,103.65
2023-05-14T05:56:02.551Z,99.76
2023-05-14T05:57:05.930Z,102.08
2023-05-14T05:58:09.550Z,102.71
2023-05-14T05:59:13.014Z,101.99
2023-05-14T06:00:17.728Z,103.44
2023-05-14T06:01:20.864Z,104.60
2023-05-14T06:02:25.749Z,101.72
2023-05-14T06:03:29.127Z,101.50
2023-05-14T06:04:32.466Z,100.78
2023-05-14T06:05:35.866Z,103.60
2023-05-14T06:06:39.067Z,99.22
2023-05-14T06:07:42.338Z,100.31
2023-05-14T06:08:45.598Z,102.32
2023-05-14T06:09:48.794Z,91.99
2023-05-14T06:10:52.160Z,106.10
2023-05-14T06:11:55.392Z,105.06
2023-05-14T06:12:58.637Z,108.99
2023-05-14T06:14:02.081Z,109.84
2023-05-14T06:15:05.718Z,109.29
2023-05-14T06:16:09.082Z,104.97
2023-05-14T06:17:12.642Z,106.26
2023-05-14T06:18:16.021Z,102.43
2023-05-14T06:19:19.869Z,107.36
2023-05-14T06:20:23.459Z,108.25
2023-05-14T06:21:27.075Z,103.28
2023-05-14T06:22:30.399Z,104.34
2023-05-14T06:23:34.145Z,105.74
2023-05-14T06:24:37.389Z,101.72
2023-05-14T06:25:40.600Z,99.51
2023-05-14T06:26:43.783Z,96.57
2023-05-14T06:27:47.010Z,93.45
2023-05-14T06:28:50.149Z,96.36
2023-05-14T06:29:53.424Z,96.16
2023-05-14T06:30:56.594Z,101.08
2023-05-14T06:32:04.414Z,92.50
2023-05-14T06:33:07.664Z,96.86
2023-05-14T06:34:11.459Z,100.47
2023-05-14T06:35:14.656Z,95.57
2023-05-14T06:36:17.852Z,91.37
2023-05-14T06:37:21.164Z,91.83
2023-05-14T06:38:24.445Z,87.67
2023-05-14T06:39:27.749Z,93.71
2023-05-14T06:40:30.990Z,90.74
2023-05-14T06:41:34.140Z,93.42
2023-05-14T06:42:37.300Z,93.43
2023-05-14T06:43:41.072Z,86.85
2023-05-14T06:44:44.506Z,91.03
2023-05-14T06:45:51.845Z,91.10
2023-05-14T06:46:55.051Z,88.22
2023-05-14T06:47:58.304Z,82.93
2023-05-14T06:49:01.588Z,89.95
2023-05-14T06:50:05.194Z,89.70
2023-05-14T06:51:08.491Z,87.57
2023-05-14T06:52:11.733Z,86.58
2023-05-14T06:53:16.020Z,87.58
2023-05-14T06:54:21.130Z,82.12
2023-05-14T06:55:24.491Z,90.70
2023-05-14T06:56:27.756Z,81.45
2023-05-14T06:57:30.989Z,83.34
2023-05-14T06:58:34.214Z,79.46
2023-05-14T06:59:37.374Z,83.78
2023-05-14T07:00:41.305Z,82.83
2023-05-14T07:01:44.539Z,85.94
2023-05-14T07:02:47.788Z,85.71
2023-05-14T07:03:51.116Z,83.28
2023-05-14T07:04:54.346Z,82.57
2023-05-14T07:05:57.605Z,80.87
2023-05-14T07:07:00.915Z,79.11
2023-05-14T07:08:04.212Z,80.72
2023-05-14T07:09:08.002Z,81.78
2023-05-14T07:10:11.473Z,81.33
2023-05-14T07:11:15.485Z,87.00
2023-05-14T07:12:18.721Z,83.65
2023-05-14T07:13:22.070Z,81.31
2023-05-14T07:14:25.224Z,80.22
2023-05-14T07:15:28.681Z,81.24
2023-05-14T07:16:32.175Z,84.18
2023-05-14T07:17:35.528Z,82.28
2023-05-14T07:18:38.860Z,84.12
2023-05-14T07:19:42.178Z,78.93
2023-05-14T07:20:45.373Z,80.03
2023-05-14T07:21:48.558Z,80.52
2023-05-14T07:22:53.392Z,80.78
2023-05-14T07:23:56.662Z,80.98
2023-05-14T07:24:59.793Z,83.98
2023-05-14T07:26:04.285Z,83.37
2023-05-14T07:27:07.572Z,79.75
2023-05-14T07:28:11.009Z,79.23
2023-05-14T07:29:14.193Z,77.03
2023-05-14T07:30:17.596Z,75.55
2023-05-14T07:31:21.269Z,79.12
2023-05-14T07:32:25.749Z,73.28
2023-05-14T07:33:29.069Z,74.93
2023-05-14T07:34:32.333Z,80.46
2023-05-14T07:35:35.675Z,78.36
2023-05-14T07:36:38.949Z,70.54
2023-05-14T07:37:43.616Z,77.70
2023-05-14T07:38:46.937Z,78.25
2023-05-14T07:39:50.136Z,77.16
2023-05-14T07:40:53.460Z,80.76
2023-05-14T07:41:56.772Z,74.03
2023-05-14T07:42:59.978Z,78.05
2023-05-14T07:44:03.281Z,79.52
2023-05-14T07:45:07.365Z,77.10
2023-05-14T07:46:10.802Z,72.92
2023-05-14T07:47:14.040Z,73.48
2023-05-14T07:48:17.444Z,74.94
2023-05-14T07:49:20.665Z,76.54
2023-05-14T07:50:24.397Z,74.34
2023-05-14T07:51:29.081Z,78.04
2023-05-14T07:52:32.304Z,74.60
2023-05-14T07:53:35.663Z,75.80
2023-05-14T07:54:39.459Z,70.53
2023-05-14T07:55:43.523Z,74.61
2023-05-14T07:56:46.818Z,76.71
2023-05-14T07:57:50.303Z,72.34
2023-05-14T07:58:53.581Z,71.12
2023-05-14T07:59:57.596Z,71.56
2023-05-14T08:01:02.095Z,73.27
2023-05-14T08:02:05.468Z,72.79
2023-05-14T08:03:08.870Z,71.42
2023-05-14T08:04:17.005Z,73.70
2023-05-14T08:05:20.572Z,74.60
2023-05-14T08:06:24.448Z,72.63
2023-05-14T08:07:29.967Z,73.15
2023-05-14T08:08:33.194Z,78.40
2023-05-14T08:09:36.600Z,73.42
2023-05-14T08:10:39.935Z,75.44
2023-05-14T08:11:43.367Z,72.43
2023-05-14T08:12:46.608Z,70.33
2023-05-14T08:13:49.860Z,70.56
2023-05-14T08:14:53.532Z,69.15
2023-05-14T08:15:57.237Z,71.75
2023-05-14T08:17:00.628Z,71.28
2023-05-14T08:18:04.228Z,69.09
2023-05-14T08:19:07.720Z,68.29
2023-05-14T08:20:12.742Z,71.23
2023-05-14T08:21:15.971Z,68.56
2023-05-14T08:22:19.168Z,70.28
2023-05-14T08:23:23.245Z,67.48
2023-05-14T08:24:26.673Z,71.75
2023-05-14T08:25:30.671Z,66.84
2023-05-14T08:26:33.797Z,68.34
2023-05-14T08:27:38.540Z,70.15
2023-05-14T08:28:41.709Z,68.91
2023-05-14T08:29:44.930Z,68.51
2023-05-14T08:30:48.278Z,66.80
2023-05-14T08:31:51.985Z,68.09
2023-05-14T08:32:55.295Z,66.77
2023-05-14T08:33:58.537Z,67.63
2023-05-14T08:35:02.208Z,68.36
2023-05-14T08:36:05.761Z,69.42
2023-05-14T08:37:08.920Z,70.24
2023-05-14T08:38:12.212Z,68.74
2023-05-14T08:39:15.408Z,67.49
2023-05-14T08:40:19.382Z,67.83
2023-05-14T08:41:22.761Z,65.53
2023-05-14T08:42:27.691Z,65.10
2023-05-14T08:44:14.615Z,61.86
2023-05-14T08:45:26.408Z,64.20
2023-05-14T08:46:32.858Z,62.56
2023-05-14T08:47:37.778Z,64.65
2023-05-14T08:48:44.104Z,64.95
2023-05-14T08:50:08.883Z,62.15
2023-05-14T08:51:12.467Z,67.36
2023-05-14T08:52:19.206Z,65.71
2023-05-14T08:53:22.416Z,63.73
2023-05-14T08:54:27.036Z,63.16
2023-05-14T08:55:33.618Z,64.52
2023-05-14T08:56:37.728Z,63.52
2023-05-14T08:57:41.309Z,66.50
2023-05-14T08:58:44.543Z,63.94
2023-05-14T08:59:48.526Z,64.19
2023-05-14T09:00:52.419Z,70.88
2023-05-14T09:01:57.711Z,64.29
2023-05-14T09:03:01.602Z,67.32
2023-05-14T09:04:09.148Z,64.91
2023-05-14T09:05:13.097Z,64.24
2023-05-14T09:06:16.875Z,67.97
2023-05-14T09:07:20.127Z,67.95
2023-05-14T09:08:23.418Z,63.26
2023-05-14T09:09:28.691Z,64.99
2023-05-14T09:10:31.937Z,69.03
2023-05-14T09:11:35.255Z,61.02
2023-05-14T09:12:38.439Z,63.09
2023-05-14T09:13:41.810Z,63.50
2023-05-14T09:14:46.205Z,64.65
2023-05-14T09:15:51.919Z,65.57
2023-05-14T09:16:56.166Z,65.00
2023-05-14T09:17:59.600Z,62.40
2023-05-14T09:19:03.108Z,62.57
2023-05-14T09:20:08.173Z,65.87
2023-05-14T09:21:11.595Z,64.76
2023-05-14T09:22:18.005Z,67.46
2023-05-14T09:23:21.405Z,66.58
2023-05-14T09:24:26.995Z,60.76
2023-05-14T09:25:33.894Z,66.69
2023-05-14T09:26:37.119Z,67.82
2023-05-14T09:27:40.553Z,66.15
2023-05-14T09:28:44.719Z,66.16
2023-05-14T09:29:49.280Z,65.60
2023-05-14T09:30:52.915Z,65.93
2023-05-14T09:31:58.154Z,63.12
2023-05-14T09:33:01.496Z,65.83
2023-05-14T09:34:05.135Z,64.89
2023-05-14T09:35:18.116Z,65.51
2023-05-14T09:36:21.547Z,66.73
2023-05-14T09:37:26.750Z,64.66
2023-05-14T09:38:31.610Z,65.65
2023-05-14T09:39:39.863Z,66.62
2023-05-14T09:40:43.327Z,67.06
2023-05-14T09:41:46.560Z,68.74
2023-05-14T09:42:50.844Z,63.28
2023-05-14T09:43:54.125Z,66.00
2023-05-14T09:44:57.467Z,67.59
2023-05-14T09:46:00.767Z,62.80
2023-05-14T09:47:05.001Z,63.67
2023-05-14T09:48:09.630Z,60.50
2023-05-14T09:49:13.202Z,64.53
2023-05-14T09:50:16.552Z,69.78
2023-05-14T09:51:20.550Z,66.12
2023-05-14T09:52:27.277Z,64.47
2023-05-14T09:53:31.652Z,64.70
2023-05-14T09:54:36.132Z,67.54
2023-05-14T09:55:39.914Z,64.51
2023-05-14T09:56:44.924Z,70.26
2023-05-14T09:57:48.423Z,65.35
2023-05-14T09:58:51.632Z,65.87
2023-05-14T09:59:55.021Z,62.16
2023-05-14T10:00:59.294Z,66.96
2023-05-14T10:02:04.515Z,67.78
2023-05-14T10:03:08.875Z,64.92
2023-05-14T10:04:13.389Z,63.46
2023-05-14T10:05:16.903Z,63.89
2023-05-14T10:06:25.584Z,65.97
2023-05-14T10:07:47.507Z,66.14
2023-05-14T10:08:57.101Z,67.61
2023-05-14T10:10:04.269Z,63.72
2023-05-14T10:11:14.366Z,62.71
2023-05-14T10:12:24.156Z,67.85
2023-05-14T10:13:33.790Z,62.94
2023-05-14T10:14:43.894Z,68.44
2023-05-14T10:16:22.462Z,62.44
2023-05-14T10:17:33.169Z,60.42
2023-05-14T10:18:44.161Z,64.73
2023-05-14T10:19:54.576Z,63.64
2023-05-14T10:21:08.647Z,67.40
2023-05-14T10:22:16.385Z,63.79
2023-05-14T10:23:20.453Z,65.72
2023-05-14T10:24:24.540Z,63.79
2023-05-14T10:25:28.617Z,68.09
2023-05-14T10:26:34.367Z,66.13
2023-05-14T10:27:37.958Z,62.65
2023-05-14T10:28:41.983Z,65.67
2023-05-14T10:29:56.108Z,64.55
2023-05-14T10:31:01.667Z,65.29
2023-05-14T10:32:07.650Z,64.59
2023-05-14T10:33:15.219Z,63.55
2023-05-14T10:34:57.003Z,63.58
2023-05-14T10:36:08.234Z,64.24
2023-05-14T10:37:31.708Z,67.99
2023-05-14T10:38:39.316Z,68.94
2023-05-14T10:39:55.599Z,64.63
2023-05-14T10:41:07.153Z,64.76
2023-05-14T10:42:36.073Z,67.89
2023-05-14T10:43:41.896Z,63.98
2023-05-14T10:45:02.287Z,63.52
2023-05-14T10:46:07.026Z,63.09
2023-05-14T10:47:10.439Z,62.97
2023-05-14T10:48:13.888Z,64.38
2023-05-14T10:49:28.243Z,64.27
2023-05-14T10:50:39.836Z,61.76
2023-05-14T10:51:43.165Z,63.29
2023-05-14T10:52:47.152Z,66.76
2023-05-14T10:53:50.546Z,62.64
2023-05-14T10:55:01.870Z,64.28
2023-05-14T10:56:12.268Z,64.27
2023-05-14T10:57:15.523Z,60.41
2023-05-14T10:58:19.211Z,63.20
2023-05-14T10:59:28.234Z,63.48
2023-05-14T11:00:35.195Z,65.68
2023-05-14T11:01:41.910Z,64.55
2023-05-14T11:02:46.575Z,64.66
2023-05-14T11:03:54.587Z,63.25
2023-05-14T11:04:59.826Z,61.80
2023-05-14T11:06:05.051Z,60.91
2023-05-14T11:07:08.926Z,62.68
2023-05-14T11:08:14.437Z,60.28
2023-05-14T11:09:18.726Z,62.22
2023-05-14T11:10:22.980Z,60.78
2023-05-14T11:11:26.994Z,63.98
2023-05-14T11:12:31.147Z,58.41
2023-05-14T11:13:35.252Z,62.62
2023-05-14T11:14:38.575Z,59.95
2023-05-14T11:15:47.739Z,58.09
2023-05-14T11:16:51.348Z,59.57
2023-05-14T11:17:55.207Z,60.65
2023-05-14T11:19:06.065Z,59.67
2023-05-14T11:20:11.089Z,58.10
2023-05-14T11:21:14.436Z,59.78
2023-05-14T11:22:17.600Z,62.32
2023-05-14T11:23:24.072Z,62.19
2023-05-14T11:24:27.207Z,60.30
2023-05-14T11:25:30.733Z,57.06
2023-05-14T11:26:34.842Z,63.40
2023-05-14T11:27:39.997Z,62.07
2023-05-14T11:28:43.267Z,61.73
2023-05-14T11:29:48.526Z,61.94
2023-05-14T11:30:52.407Z,59.91
2023-05-14T11:31:55.999Z,57.06
2023-05-14T11:33:01.767Z,56.52
2023-05-14T11:34:07.927Z,56.98
2023-05-14T11:35:11.452Z,60.31
2023-05-14T11:36:15.423Z,57.85
2023-05-14T11:37:19.014Z,62.43
2023-05-14T11:38:22.552Z,63.04
2023-05-14T11:39:25.689Z,58.87
2023-05-14T11:40:29.118Z,61.18
2023-05-14T11:41:32.429Z,58.25
2023-05-14T11:42:35.636Z,58.55
2023-05-14T11:43:38.903Z,61.66
2023-05-14T11:44:45.081Z,59.50
2023-05-14T11:45:53.337Z,60.51
2023-05-14T11:46:57.954Z,61.22
2023-05-14T11:48:01.195Z,54.92
2023-05-14T11:49:08.133Z,52.96
2023-05-14T11:50:11.921Z,58.66
2023-05-14T11:51:15.173Z,55.94
2023-05-14T11:52:20.045Z,59.36
2023-05-14T11:53:28.750Z,54.23
2023-05-14T11:54:34.100Z,59.60
2023-05-14T11:55:37.617Z,57.84
2023-05-14T11:56:40.893Z,57.60
2023-05-14T11:57:44.370Z,58.00
2023-05-14T11:58:56.453Z,58.79
2023-05-14T11:59:59.852Z,55.91
2023-05-14T12:01:03.136Z,52.50
2023-05-14T12:02:11.505Z,58.97
2023-05-14T12:03:14.931Z,56.42
2023-05-14T12:04:19.642Z,54.68
2023-05-14T12:05:23.017Z,52.24
2023-05-14T12:06:34.487Z,53.71
2023-05-14T12:07:37.630Z,58.25
2023-05-14T12:08:40.788Z,55.93
2023-05-14T12:09:52.062Z,54.03
2023-05-14T12:10:55.856Z,53.52
2023-05-14T12:11:59.161Z,53.44
2023-05-14T12:13:08.357Z,52.50
2023-05-14T12:14:22.503Z,54.82
2023-05-14T12:15:27.308Z,55.94
2023-05-14T12:16:35.417Z,55.18
2023-05-14T12:17:40.522Z,54.46
2023-05-14T12:18:43.914Z,53.14
2023-05-14T12:19:49.972Z,58.51
2023-05-14T12:20:53.225Z,55.53
2023-05-14T12:21:56.453Z,51.87
2023-05-14T12:22:59.769Z,48.52
2023-05-14T12:24:03.340Z,52.61
2023-05-14T12:25:14.065Z,50.94
2023-05-14T12:26:17.345Z,54.53
2023-05-14T12:27:29.483Z,58.01
2023-05-14T12:28:36.076Z,54.95
2023-05-14T12:29:41.183Z,50.98
2023-05-14T12:30:44.404Z,52.64
2023-05-14T12:31:49.879Z,50.37
2023-05-14T12:32:54.369Z,53.23
2023-05-14T12:33:58.206Z,52.66
2023-05-14T12:35:04.274Z,53.75
2023-05-14T12:36:20.722Z,55.46
2023-05-14T12:37:25.506Z,56.56
2023-05-14T12:38:29.644Z,54.34
2023-05-14T12:39:35.456Z,53.67
2023-05-14T12:40:38.691Z,56.84
2023-05-14T12:41:42.022Z,54.00
2023-05-14T12:42:45.247Z,55.74
2023-05-14T12:43:50.387Z,56.20
2023-05-14T12:44:53.573Z,53.72
2023-05-14T12:45:56.773Z,55.91
2023-05-14T12:47:00.198Z,55.25
2023-05-14T12:48:03.808Z,55.77
2023-05-14T12:49:07.586Z,54.92
2023-05-14T12:50:11.124Z,55.35
2023-05-14T12:51:14.451Z,61.15
2023-05-14T12:52:33.037Z,59.61
2023-05-14T12:53:40.501Z,57.22
2023-05-14T12:54:44.123Z,55.60
2023-05-14T12:55:47.938Z,52.43
2023-05-14T12:56:52.489Z,53.78
2023-05-14T12:57:55.715Z,51.12
2023-05-14T12:58:58.999Z,51.82
2023-05-14T13:00:03.133Z,48.10
2023-05-14T13:01:06.836Z,47.29
2023-05-14T13:02:10.132Z,47.05
2023-05-14T13:03:13.356Z,48.98
2023-05-14T13:04:16.610Z,46.95
2023-05-14T13:05:19.811Z,48.37
2023-05-14T13:06:23.370Z,46.65
2023-05-14T13:07:26.703Z,51.71
2023-05-14T13:08:30.563Z,55.67
2023-05-14T13:09:33.763Z,50.08
2023-05-14T13:10:37.061Z,53.82
2023-05-14T13:11:40.292Z,51.26
2023-05-14T13:12:43.463Z,49.98
2023-05-14T13:13:46.682Z,55.43
2023-05-14T13:14:49.948Z,52.76
2023-05-14T13:15:54.197Z,53.45
2023-05-14T13:16:57.910Z,53.99
2023-05-14T13:18:01.601Z,52.99
2023-05-14T13:19:04.928Z,51.72
2023-05-14T13:20:09.049Z,47.91
2023-05-14T13:21:13.355Z,48.19
2023-05-14T13:22:17.847Z,53.71
2023-05-14T13:23:21.097Z,51.34
2023-05-14T13:24:25.840Z,52.11
2023-05-14T13:25:29.122Z,53.60
2023-05-14T13:26:32.371Z,52.67
2023-05-14T13:27:36.543Z,51.21
2023-05-14T13:28:39.803Z,51.74
2023-05-14T13:29:43.230Z,49.99
2023-05-14T13:31:15.010Z,49.80
2023-05-14T13:32:18.175Z,48.25
2023-05-14T13:33:21.390Z,45.97
2023-05-14T13:34:24.701Z,42.10
2023-05-14T13:35:27.997Z,43.14
2023-05-14T13:36:32.946Z,47.07
2023-05-14T13:37:36.548Z,43.52
2023-05-14T13:38:40.042Z,44.77
2023-05-14T13:39:43.380Z,41.35
2023-05-14T13:40:46.670Z,45.15
2023-05-14T13:41:51.433Z,44.51
2023-05-14T13:42:54.585Z,41.70
2023-05-14T13:43:57.782Z,44.19
2023-05-14T13:45:01.915Z,39.11
2023-05-14T13:46:07.435Z,40.73
2023-05-14T13:47:12.280Z,42.12
2023-05-14T13:48:15.506Z,45.68
2023-05-14T13:49:18.896Z,43.44
2023-05-14T13:50:22.939Z,45.19
2023-05-14T13:51:26.219Z,43.19
2023-05-14T13:52:29.444Z,48.36
2023-05-14T13:53:32.778Z,45.13
2023-05-14T13:54:35.997Z,44.45
2023-05-14T13:55:39.197Z,43.18
2023-05-14T13:56:42.614Z,46.03
2023-05-14T13:57:45.856Z,43.12
2023-05-14T13:58:49.996Z,41.26
2023-05-14T13:59:53.397Z,43.29